sensor_id;sensor_type;location;lat;lon;timestamp;temperature;humidity
76384;SHT30;65204;48.606;7.598;2023-02-26T00:00:29;3.87;53.26
76384;SHT30;65204;48.606;7.598;2023-02-26T00:00:59;3.87;53.06
76384;SHT30;65204;48.606;7.598;2023-02-26T00:01:31;3.87;53.00
76384;SHT30;65204;48.606;7.598;2023-02-26T00:02:02;3.83;52.96
76384;SHT30;65204;48.606;7.598;2023-02-26T00:02:32;3.83;53.21
76384;SHT30;65204;48.606;7.598;2023-02-26T00:03:03;3.82;53.35
76384;SHT30;65204;48.606;7.598;2023-02-26T00:03:33;3.83;53.36
76384;SHT30;65204;48.606;7.598;2023-02-26T00:04:04;3.79;53.63
76384;SHT30;65204;48.606;7.598;2023-02-26T00:04:36;3.79;53.85
76384;SHT30;65204;48.606;7.598;2023-02-26T00:05:07;3.78;53.92
76384;SHT30;65204;48.606;7.598;2023-02-26T00:05:38;3.75;53.96
76384;SHT30;65204;48.606;7.598;2023-02-26T00:06:08;3.73;54.09
76384;SHT30;65204;48.606;7.598;2023-02-26T00:06:39;3.76;54.13
76384;SHT30;65204;48.606;7.598;2023-02-26T00:07:21;3.78;53.91
76384;SHT30;65204;48.606;7.598;2023-02-26T00:07:51;3.76;53.54
76384;SHT30;65204;48.606;7.598;2023-02-26T00:08:22;3.78;53.42
76384;SHT30;65204;48.606;7.598;2023-02-26T00:08:53;3.78;53.40
76384;SHT30;65204;48.606;7.598;2023-02-26T00:09:23;3.79;53.35
76384;SHT30;65204;48.606;7.598;2023-02-26T00:09:54;3.79;53.35
76384;SHT30;65204;48.606;7.598;2023-02-26T00:10:25;3.76;53.33
76384;SHT30;65204;48.606;7.598;2023-02-26T00:10:56;3.79;53.59
76384;SHT30;65204;48.606;7.598;2023-02-26T00:11:26;3.82;53.36
76384;SHT30;65204;48.606;7.598;2023-02-26T00:11:58;3.83;53.44
76384;SHT30;65204;48.606;7.598;2023-02-26T00:12:29;3.85;53.45
76384;SHT30;65204;48.606;7.598;2023-02-26T00:13:00;3.82;53.56
76384;SHT30;65204;48.606;7.598;2023-02-26T00:13:30;3.83;53.33
76384;SHT30;65204;48.606;7.598;2023-02-26T00:14:01;3.80;53.29
76384;SHT30;65204;48.606;7.598;2023-02-26T00:14:32;3.85;53.30
76384;SHT30;65204;48.606;7.598;2023-02-26T00:15:03;3.87;53.29
76384;SHT30;65204;48.606;7.598;2023-02-26T00:15:34;3.85;53.25
76384;SHT30;65204;48.606;7.598;2023-02-26T00:16:12;3.86;53.38
76384;SHT30;65204;48.606;7.598;2023-02-26T00:17:14;3.87;53.20
76384;SHT30;65204;48.606;7.598;2023-02-26T00:17:58;3.90;52.73
76384;SHT30;65204;48.606;7.598;2023-02-26T00:18:31;3.87;52.76
76384;SHT30;65204;48.606;7.598;2023-02-26T00:19:04;3.87;52.72
76384;SHT30;65204;48.606;7.598;2023-02-26T00:19:35;3.93;52.66
76384;SHT30;65204;48.606;7.598;2023-02-26T00:20:06;3.93;52.43
76384;SHT30;65204;48.606;7.598;2023-02-26T00:20:38;3.90;52.27
76384;SHT30;65204;48.606;7.598;2023-02-26T00:21:15;3.92;52.69
76384;SHT30;65204;48.606;7.598;2023-02-26T00:21:46;3.93;52.49
76384;SHT30;65204;48.606;7.598;2023-02-26T00:22:17;3.92;52.45
76384;SHT30;65204;48.606;7.598;2023-02-26T00:22:47;3.94;51.84
76384;SHT30;65204;48.606;7.598;2023-02-26T00:23:18;3.97;52.10
76384;SHT30;65204;48.606;7.598;2023-02-26T00:23:48;4.00;52.21
76384;SHT30;65204;48.606;7.598;2023-02-26T00:24:19;4.00;52.15
76384;SHT30;65204;48.606;7.598;2023-02-26T00:24:49;4.01;52.11
76384;SHT30;65204;48.606;7.598;2023-02-26T00:25:19;4.01;51.87
76384;SHT30;65204;48.606;7.598;2023-02-26T00:25:50;4.01;52.03
76384;SHT30;65204;48.606;7.598;2023-02-26T00:26:22;4.01;51.72
76384;SHT30;65204;48.606;7.598;2023-02-26T00:26:52;4.01;51.90
76384;SHT30;65204;48.606;7.598;2023-02-26T00:27:23;3.97;51.93
76384;SHT30;65204;48.606;7.598;2023-02-26T00:27:53;3.96;52.06
76384;SHT30;65204;48.606;7.598;2023-02-26T00:28:24;3.96;52.17
76384;SHT30;65204;48.606;7.598;2023-02-26T00:28:55;3.93;52.18
76384;SHT30;65204;48.606;7.598;2023-02-26T00:29:26;3.96;52.05
76384;SHT30;65204;48.606;7.598;2023-02-26T00:29:56;3.96;52.01
76384;SHT30;65204;48.606;7.598;2023-02-26T00:30:27;3.94;51.57
76384;SHT30;65204;48.606;7.598;2023-02-26T00:30:58;3.94;51.71
76384;SHT30;65204;48.606;7.598;2023-02-26T00:31:28;3.94;51.81
76384;SHT30;65204;48.606;7.598;2023-02-26T00:31:59;3.94;52.01
76384;SHT30;65204;48.606;7.598;2023-02-26T00:32:29;3.94;51.75
76384;SHT30;65204;48.606;7.598;2023-02-26T00:33:00;3.92;51.73
76384;SHT30;65204;48.606;7.598;2023-02-26T00:33:31;3.94;51.87
76384;SHT30;65204;48.606;7.598;2023-02-26T00:34:02;3.96;52.05
76384;SHT30;65204;48.606;7.598;2023-02-26T00:34:33;3.97;51.73
76384;SHT30;65204;48.606;7.598;2023-02-26T00:35:06;3.97;51.52
76384;SHT30;65204;48.606;7.598;2023-02-26T00:35:37;3.96;51.52
76384;SHT30;65204;48.606;7.598;2023-02-26T00:36:28;3.97;51.69
76384;SHT30;65204;48.606;7.598;2023-02-26T00:37:13;3.96;51.81
76384;SHT30;65204;48.606;7.598;2023-02-26T00:38:05;4.01;51.49
76384;SHT30;65204;48.606;7.598;2023-02-26T00:38:36;3.99;51.05
76384;SHT30;65204;48.606;7.598;2023-02-26T00:40:51;3.89;51.38
76384;SHT30;65204;48.606;7.598;2023-02-26T00:41:24;3.89;50.92
76384;SHT30;65204;48.606;7.598;2023-02-26T00:41:54;3.90;51.42
76384;SHT30;65204;48.606;7.598;2023-02-26T00:42:25;3.89;51.24
76384;SHT30;65204;48.606;7.598;2023-02-26T00:42:56;3.87;51.49
76384;SHT30;65204;48.606;7.598;2023-02-26T00:43:26;3.90;51.54
76384;SHT30;65204;48.606;7.598;2023-02-26T00:43:57;3.89;51.52
76384;SHT30;65204;48.606;7.598;2023-02-26T00:44:28;3.90;51.45
76384;SHT30;65204;48.606;7.598;2023-02-26T00:44:58;3.87;51.24
76384;SHT30;65204;48.606;7.598;2023-02-26T00:45:29;3.85;51.39
76384;SHT30;65204;48.606;7.598;2023-02-26T00:46:44;3.87;51.46
76384;SHT30;65204;48.606;7.598;2023-02-26T00:48:17;3.93;51.46
76384;SHT30;65204;48.606;7.598;2023-02-26T00:50:19;3.89;51.51
76384;SHT30;65204;48.606;7.598;2023-02-26T00:51:07;3.86;51.58
76384;SHT30;65204;48.606;7.598;2023-02-26T00:51:46;3.80;51.72
76384;SHT30;65204;48.606;7.598;2023-02-26T00:53:16;3.79;52.06
76384;SHT30;65204;48.606;7.598;2023-02-26T00:54:30;3.79;51.93
76384;SHT30;65204;48.606;7.598;2023-02-26T00:55:01;3.78;51.88
76384;SHT30;65204;48.606;7.598;2023-02-26T00:55:31;3.75;51.77
76384;SHT30;65204;48.606;7.598;2023-02-26T00:56:02;3.75;52.00
76384;SHT30;65204;48.606;7.598;2023-02-26T00:56:32;3.72;52.16
76384;SHT30;65204;48.606;7.598;2023-02-26T00:57:02;3.73;52.14
76384;SHT30;65204;48.606;7.598;2023-02-26T00:57:35;3.70;52.01
76384;SHT30;65204;48.606;7.598;2023-02-26T00:58:05;3.72;52.15
76384;SHT30;65204;48.606;7.598;2023-02-26T00:58:35;3.69;52.13
76384;SHT30;65204;48.606;7.598;2023-02-26T00:59:06;3.69;52.11
76384;SHT30;65204;48.606;7.598;2023-02-26T00:59:36;3.65;52.27
76384;SHT30;65204;48.606;7.598;2023-02-26T01:00:07;3.66;52.27
76384;SHT30;65204;48.606;7.598;2023-02-26T01:00:38;3.66;52.35
76384;SHT30;65204;48.606;7.598;2023-02-26T01:01:08;3.63;52.44
76384;SHT30;65204;48.606;7.598;2023-02-26T01:01:38;3.60;52.37
76384;SHT30;65204;48.606;7.598;2023-02-26T01:02:09;3.62;52.54
76384;SHT30;65204;48.606;7.598;2023-02-26T01:02:40;3.60;52.40
76384;SHT30;65204;48.606;7.598;2023-02-26T01:03:11;3.62;52.36
76384;SHT30;65204;48.606;7.598;2023-02-26T01:03:41;3.60;52.39
76384;SHT30;65204;48.606;7.598;2023-02-26T01:04:13;3.62;52.36
76384;SHT30;65204;48.606;7.598;2023-02-26T01:04:43;3.65;52.26
76384;SHT30;65204;48.606;7.598;2023-02-26T01:05:15;3.62;52.09
76384;SHT30;65204;48.606;7.598;2023-02-26T01:05:45;3.63;52.27
76384;SHT30;65204;48.606;7.598;2023-02-26T01:06:19;3.63;52.53
76384;SHT30;65204;48.606;7.598;2023-02-26T01:06:53;3.63;52.21
76384;SHT30;65204;48.606;7.598;2023-02-26T01:07:25;3.66;52.26
76384;SHT30;65204;48.606;7.598;2023-02-26T01:08:13;3.65;52.17
76384;SHT30;65204;48.606;7.598;2023-02-26T01:09:31;3.66;52.10
76384;SHT30;65204;48.606;7.598;2023-02-26T01:10:03;3.65;52.15
76384;SHT30;65204;48.606;7.598;2023-02-26T01:10:34;3.62;52.19
76384;SHT30;65204;48.606;7.598;2023-02-26T01:11:05;3.62;52.38
76384;SHT30;65204;48.606;7.598;2023-02-26T01:11:35;3.60;52.29
76384;SHT30;65204;48.606;7.598;2023-02-26T01:12:09;3.63;52.21
76384;SHT30;65204;48.606;7.598;2023-02-26T01:12:41;3.60;52.27
76384;SHT30;65204;48.606;7.598;2023-02-26T01:13:12;3.60;52.41
76384;SHT30;65204;48.606;7.598;2023-02-26T01:13:42;3.56;52.76
76384;SHT30;65204;48.606;7.598;2023-02-26T01:14:13;3.55;52.88
76384;SHT30;65204;48.606;7.598;2023-02-26T01:14:44;3.55;52.74
76384;SHT30;65204;48.606;7.598;2023-02-26T01:15:16;3.54;52.79
76384;SHT30;65204;48.606;7.598;2023-02-26T01:15:51;3.54;53.01
76384;SHT30;65204;48.606;7.598;2023-02-26T01:16:27;3.54;52.98
76384;SHT30;65204;48.606;7.598;2023-02-26T01:17:22;3.51;53.18
76384;SHT30;65204;48.606;7.598;2023-02-26T01:18:11;3.54;53.32
76384;SHT30;65204;48.606;7.598;2023-02-26T01:18:47;3.54;53.71
76384;SHT30;65204;48.606;7.598;2023-02-26T01:20:19;3.54;53.80
76384;SHT30;65204;48.606;7.598;2023-02-26T01:20:59;3.54;53.51
76384;SHT30;65204;48.606;7.598;2023-02-26T01:21:35;3.52;53.53
76384;SHT30;65204;48.606;7.598;2023-02-26T01:22:14;3.49;53.79
76384;SHT30;65204;48.606;7.598;2023-02-26T01:22:58;3.49;53.93
76384;SHT30;65204;48.606;7.598;2023-02-26T01:23:38;3.49;53.89
76384;SHT30;65204;48.606;7.598;2023-02-26T01:24:12;3.46;53.96
76384;SHT30;65204;48.606;7.598;2023-02-26T01:24:46;3.48;53.99
76384;SHT30;65204;48.606;7.598;2023-02-26T01:25:23;3.46;54.15
76384;SHT30;65204;48.606;7.598;2023-02-26T01:26:10;3.48;54.13
76384;SHT30;65204;48.606;7.598;2023-02-26T01:26:42;3.48;54.07
76384;SHT30;65204;48.606;7.598;2023-02-26T01:27:12;3.45;54.15
76384;SHT30;65204;48.606;7.598;2023-02-26T01:27:43;3.46;54.21
76384;SHT30;65204;48.606;7.598;2023-02-26T01:28:14;3.42;54.16
76384;SHT30;65204;48.606;7.598;2023-02-26T01:28:45;3.43;54.37
76384;SHT30;65204;48.606;7.598;2023-02-26T01:29:15;3.43;54.43
76384;SHT30;65204;48.606;7.598;2023-02-26T01:29:46;3.42;54.65
76384;SHT30;65204;48.606;7.598;2023-02-26T01:30:17;3.43;54.69
76384;SHT30;65204;48.606;7.598;2023-02-26T01:30:49;3.39;54.57
76384;SHT30;65204;48.606;7.598;2023-02-26T01:32:21;3.42;54.64
76384;SHT30;65204;48.606;7.598;2023-02-26T01:34:08;3.42;54.41
76384;SHT30;65204;48.606;7.598;2023-02-26T01:34:47;3.40;54.47
76384;SHT30;65204;48.606;7.598;2023-02-26T01:35:31;3.40;54.49
76384;SHT30;65204;48.606;7.598;2023-02-26T01:36:08;3.38;54.54
76384;SHT30;65204;48.606;7.598;2023-02-26T01:36:50;3.35;54.69
76384;SHT30;65204;48.606;7.598;2023-02-26T01:37:54;3.38;54.83
76384;SHT30;65204;48.606;7.598;2023-02-26T01:38:39;3.35;54.66
76384;SHT30;65204;48.606;7.598;2023-02-26T01:40:13;3.32;54.78
76384;SHT30;65204;48.606;7.598;2023-02-26T01:41:54;3.29;55.03
76384;SHT30;65204;48.606;7.598;2023-02-26T01:42:30;3.29;54.88
76384;SHT30;65204;48.606;7.598;2023-02-26T01:43:12;3.27;55.13
76384;SHT30;65204;48.606;7.598;2023-02-26T01:43:45;3.25;54.94
76384;SHT30;65204;48.606;7.598;2023-02-26T01:44:26;3.24;54.70
76384;SHT30;65204;48.606;7.598;2023-02-26T01:45:18;3.25;54.87
76384;SHT30;65204;48.606;7.598;2023-02-26T01:46:05;3.24;54.89
76384;SHT30;65204;48.606;7.598;2023-02-26T01:47:57;3.18;55.26
76384;SHT30;65204;48.606;7.598;2023-02-26T01:48:47;3.19;55.47
76384;SHT30;65204;48.606;7.598;2023-02-26T01:49:18;3.19;55.06
76384;SHT30;65204;48.606;7.598;2023-02-26T01:49:49;3.17;55.11
76384;SHT30;65204;48.606;7.598;2023-02-26T01:50:22;3.14;54.98
76384;SHT30;65204;48.606;7.598;2023-02-26T01:50:58;3.14;54.85
76384;SHT30;65204;48.606;7.598;2023-02-26T01:51:54;3.11;54.83
76384;SHT30;65204;48.606;7.598;2023-02-26T01:53:21;3.12;54.81
76384;SHT30;65204;48.606;7.598;2023-02-26T01:53:53;3.09;54.71
76384;SHT30;65204;48.606;7.598;2023-02-26T01:54:28;3.11;54.72
76384;SHT30;65204;48.606;7.598;2023-02-26T01:54:59;3.08;54.89
76384;SHT30;65204;48.606;7.598;2023-02-26T01:55:29;3.07;54.85
76384;SHT30;65204;48.606;7.598;2023-02-26T01:56:05;3.09;54.69
76384;SHT30;65204;48.606;7.598;2023-02-26T01:56:39;3.08;54.58
76384;SHT30;65204;48.606;7.598;2023-02-26T01:57:14;3.09;54.38
76384;SHT30;65204;48.606;7.598;2023-02-26T01:57:46;3.09;54.34
76384;SHT30;65204;48.606;7.598;2023-02-26T01:58:18;3.07;54.32
76384;SHT30;65204;48.606;7.598;2023-02-26T01:58:50;3.08;54.36
76384;SHT30;65204;48.606;7.598;2023-02-26T01:59:20;3.07;54.32
76384;SHT30;65204;48.606;7.598;2023-02-26T01:59:53;3.07;54.30
76384;SHT30;65204;48.606;7.598;2023-02-26T02:00:24;3.09;54.22
76384;SHT30;65204;48.606;7.598;2023-02-26T02:00:54;3.08;54.22
76384;SHT30;65204;48.606;7.598;2023-02-26T02:01:25;3.11;54.36
76384;SHT30;65204;48.606;7.598;2023-02-26T02:01:57;3.08;54.26
76384;SHT30;65204;48.606;7.598;2023-02-26T02:02:28;3.14;54.50
76384;SHT30;65204;48.606;7.598;2023-02-26T02:02:59;3.12;54.36
76384;SHT30;65204;48.606;7.598;2023-02-26T02:03:33;3.11;54.65
76384;SHT30;65204;48.606;7.598;2023-02-26T02:04:09;3.11;54.28
76384;SHT30;65204;48.606;7.598;2023-02-26T02:04:41;3.11;54.17
76384;SHT30;65204;48.606;7.598;2023-02-26T02:05:43;3.12;54.10
76384;SHT30;65204;48.606;7.598;2023-02-26T02:06:24;3.12;54.54
76384;SHT30;65204;48.606;7.598;2023-02-26T02:06:55;3.12;54.98
76384;SHT30;65204;48.606;7.598;2023-02-26T02:07:25;3.12;54.55
76384;SHT30;65204;48.606;7.598;2023-02-26T02:07:57;3.09;54.40
76384;SHT30;65204;48.606;7.598;2023-02-26T02:08:27;3.11;54.51
76384;SHT30;65204;48.606;7.598;2023-02-26T02:08:58;3.11;54.59
76384;SHT30;65204;48.606;7.598;2023-02-26T02:09:30;3.11;54.96
76384;SHT30;65204;48.606;7.598;2023-02-26T02:10:00;3.08;54.80
76384;SHT30;65204;48.606;7.598;2023-02-26T02:10:31;3.09;54.65
76384;SHT30;65204;48.606;7.598;2023-02-26T02:11:03;3.08;54.73
76384;SHT30;65204;48.606;7.598;2023-02-26T02:12:47;3.09;54.16
76384;SHT30;65204;48.606;7.598;2023-02-26T02:14:25;3.09;54.09
76384;SHT30;65204;48.606;7.598;2023-02-26T02:15:54;3.08;54.44
76384;SHT30;65204;48.606;7.598;2023-02-26T02:17:28;3.04;54.26
76384;SHT30;65204;48.606;7.598;2023-02-26T02:23:09;3.01;54.38
76384;SHT30;65204;48.606;7.598;2023-02-26T02:23:49;3.00;54.45
76384;SHT30;65204;48.606;7.598;2023-02-26T02:25:04;2.98;54.65
76384;SHT30;65204;48.606;7.598;2023-02-26T02:26:52;3.00;54.76
76384;SHT30;65204;48.606;7.598;2023-02-26T02:27:46;2.96;54.78
76384;SHT30;65204;48.606;7.598;2023-02-26T02:29:23;2.96;54.97
76384;SHT30;65204;48.606;7.598;2023-02-26T02:31:55;2.94;55.09
76384;SHT30;65204;48.606;7.598;2023-02-26T02:32:38;2.93;55.16
76384;SHT30;65204;48.606;7.598;2023-02-26T02:33:19;2.96;55.02
76384;SHT30;65204;48.606;7.598;2023-02-26T02:34:15;2.96;55.09
76384;SHT30;65204;48.606;7.598;2023-02-26T02:35:02;2.94;55.12
76384;SHT30;65204;48.606;7.598;2023-02-26T02:35:41;2.94;55.06
76384;SHT30;65204;48.606;7.598;2023-02-26T02:36:28;2.93;55.16
76384;SHT30;65204;48.606;7.598;2023-02-26T02:37:42;2.94;55.05
76384;SHT30;65204;48.606;7.598;2023-02-26T02:38:20;2.94;55.14
76384;SHT30;65204;48.606;7.598;2023-02-26T02:39:00;2.94;55.00
76384;SHT30;65204;48.606;7.598;2023-02-26T02:39:35;2.97;55.12
76384;SHT30;65204;48.606;7.598;2023-02-26T02:40:10;2.94;55.04
76384;SHT30;65204;48.606;7.598;2023-02-26T02:40:45;2.88;55.37
76384;SHT30;65204;48.606;7.598;2023-02-26T02:41:21;2.90;55.33
76384;SHT30;65204;48.606;7.598;2023-02-26T02:41:57;2.88;55.20
76384;SHT30;65204;48.606;7.598;2023-02-26T02:43:24;2.90;55.27
76384;SHT30;65204;48.606;7.598;2023-02-26T02:44:00;2.88;55.29
76384;SHT30;65204;48.606;7.598;2023-02-26T02:44:35;2.88;55.35
76384;SHT30;65204;48.606;7.598;2023-02-26T02:45:13;2.87;55.49
76384;SHT30;65204;48.606;7.598;2023-02-26T02:46:04;2.87;55.33
76384;SHT30;65204;48.606;7.598;2023-02-26T02:46:38;2.87;55.30
76384;SHT30;65204;48.606;7.598;2023-02-26T02:47:10;2.88;55.32
76384;SHT30;65204;48.606;7.598;2023-02-26T02:47:43;2.91;55.23
76384;SHT30;65204;48.606;7.598;2023-02-26T02:48:32;2.88;55.19
76384;SHT30;65204;48.606;7.598;2023-02-26T02:49:07;2.91;55.23
76384;SHT30;65204;48.606;7.598;2023-02-26T02:49:47;2.88;55.31
76384;SHT30;65204;48.606;7.598;2023-02-26T02:50:25;2.86;55.54
76384;SHT30;65204;48.606;7.598;2023-02-26T02:51:03;2.80;55.63
76384;SHT30;65204;48.606;7.598;2023-02-26T02:51:40;2.76;55.91
76384;SHT30;65204;48.606;7.598;2023-02-26T02:52:19;2.72;56.46
76384;SHT30;65204;48.606;7.598;2023-02-26T02:52:57;2.70;56.51
76384;SHT30;65204;48.606;7.598;2023-02-26T02:53:35;2.67;56.34
76384;SHT30;65204;48.606;7.598;2023-02-26T02:54:19;2.66;56.52
76384;SHT30;65204;48.606;7.598;2023-02-26T02:54:58;2.63;56.53
76384;SHT30;65204;48.606;7.598;2023-02-26T02:55:35;2.61;56.32
76384;SHT30;65204;48.606;7.598;2023-02-26T02:56:18;2.57;56.70
76384;SHT30;65204;48.606;7.598;2023-02-26T02:56:56;2.58;56.50
76384;SHT30;65204;48.606;7.598;2023-02-26T02:57:40;2.57;56.25
76384;SHT30;65204;48.606;7.598;2023-02-26T02:58:17;2.57;56.10
76384;SHT30;65204;48.606;7.598;2023-02-26T02:59:45;2.61;55.82
76384;SHT30;65204;48.606;7.598;2023-02-26T03:00:17;2.60;55.75
76384;SHT30;65204;48.606;7.598;2023-02-26T03:00:52;2.63;55.83
76384;SHT30;65204;48.606;7.598;2023-02-26T03:01:25;2.63;55.58
76384;SHT30;65204;48.606;7.598;2023-02-26T03:02:18;2.63;55.66
76384;SHT30;65204;48.606;7.598;2023-02-26T03:03:00;2.68;55.38
76384;SHT30;65204;48.606;7.598;2023-02-26T03:04:10;2.67;55.35
76384;SHT30;65204;48.606;7.598;2023-02-26T03:04:42;2.67;55.35
76384;SHT30;65204;48.606;7.598;2023-02-26T03:05:13;2.63;55.52
76384;SHT30;65204;48.606;7.598;2023-02-26T03:05:44;2.63;55.58
76384;SHT30;65204;48.606;7.598;2023-02-26T03:06:15;2.61;55.70
76384;SHT30;65204;48.606;7.598;2023-02-26T03:06:46;2.60;55.68
76384;SHT30;65204;48.606;7.598;2023-02-26T03:07:19;2.57;55.69
76384;SHT30;65204;48.606;7.598;2023-02-26T03:07:55;2.58;55.86
76384;SHT30;65204;48.606;7.598;2023-02-26T03:08:28;2.56;56.11
76384;SHT30;65204;48.606;7.598;2023-02-26T03:09:00;2.53;56.36
76384;SHT30;65204;48.606;7.598;2023-02-26T03:09:33;2.54;56.33
76384;SHT30;65204;48.606;7.598;2023-02-26T03:10:03;2.56;56.28
76384;SHT30;65204;48.606;7.598;2023-02-26T03:10:35;2.52;56.46
76384;SHT30;65204;48.606;7.598;2023-02-26T03:11:07;2.52;56.41
76384;SHT30;65204;48.606;7.598;2023-02-26T03:11:38;2.47;56.41
76384;SHT30;65204;48.606;7.598;2023-02-26T03:12:09;2.49;56.39
76384;SHT30;65204;48.606;7.598;2023-02-26T03:12:39;2.52;56.60
76384;SHT30;65204;48.606;7.598;2023-02-26T03:13:18;2.52;56.63
76384;SHT30;65204;48.606;7.598;2023-02-26T03:13:49;2.50;56.62
76384;SHT30;65204;48.606;7.598;2023-02-26T03:14:20;2.52;56.38
76384;SHT30;65204;48.606;7.598;2023-02-26T03:14:50;2.50;56.35
76384;SHT30;65204;48.606;7.598;2023-02-26T03:15:33;2.50;56.23
76384;SHT30;65204;48.606;7.598;2023-02-26T03:17:32;2.52;56.29
76384;SHT30;65204;48.606;7.598;2023-02-26T03:18:13;2.49;56.50
76384;SHT30;65204;48.606;7.598;2023-02-26T03:20:25;2.49;56.65
76384;SHT30;65204;48.606;7.598;2023-02-26T03:21:55;2.46;56.76
76384;SHT30;65204;48.606;7.598;2023-02-26T03:23:34;2.47;56.52
76384;SHT30;65204;48.606;7.598;2023-02-26T03:24:12;2.45;56.51
76384;SHT30;65204;48.606;7.598;2023-02-26T03:24:55;2.45;56.56
76384;SHT30;65204;48.606;7.598;2023-02-26T03:25:55;2.43;56.95
76384;SHT30;65204;48.606;7.598;2023-02-26T03:27:19;2.45;56.89
76384;SHT30;65204;48.606;7.598;2023-02-26T03:27:35;2.40;57.04
76384;SHT30;65204;48.606;7.598;2023-02-26T03:29:09;2.37;57.23
76384;SHT30;65204;48.606;7.598;2023-02-26T03:31:15;2.37;57.19
76384;SHT30;65204;48.606;7.598;2023-02-26T03:31:51;2.39;57.28
76384;SHT30;65204;48.606;7.598;2023-02-26T03:32:36;2.37;57.25
76384;SHT30;65204;48.606;7.598;2023-02-26T03:35:53;2.40;57.14
76384;SHT30;65204;48.606;7.598;2023-02-26T03:36:37;2.37;56.80
76384;SHT30;65204;48.606;7.598;2023-02-26T03:37:48;2.36;56.77
76384;SHT30;65204;48.606;7.598;2023-02-26T03:38:41;2.40;56.48
76384;SHT30;65204;48.606;7.598;2023-02-26T03:39:15;2.45;56.25
76384;SHT30;65204;48.606;7.598;2023-02-26T03:39:50;2.47;56.17
76384;SHT30;65204;48.606;7.598;2023-02-26T03:40:34;2.52;55.99
76384;SHT30;65204;48.606;7.598;2023-02-26T03:41:10;2.53;55.94
76384;SHT30;65204;48.606;7.598;2023-02-26T03:41:47;2.53;55.89
76384;SHT30;65204;48.606;7.598;2023-02-26T03:42:27;2.49;55.85
76384;SHT30;65204;48.606;7.598;2023-02-26T03:43:38;2.42;56.12
76384;SHT30;65204;48.606;7.598;2023-02-26T03:44:23;2.42;56.41
76384;SHT30;65204;48.606;7.598;2023-02-26T03:45:00;2.40;56.59
76384;SHT30;65204;48.606;7.598;2023-02-26T03:45:36;2.35;56.79
76384;SHT30;65204;48.606;7.598;2023-02-26T03:46:12;2.39;56.91
76384;SHT30;65204;48.606;7.598;2023-02-26T03:46:51;2.33;56.88
76384;SHT30;65204;48.606;7.598;2023-02-26T03:47:23;2.35;56.82
76384;SHT30;65204;48.606;7.598;2023-02-26T03:47:55;2.32;56.72
76384;SHT30;65204;48.606;7.598;2023-02-26T03:48:27;2.32;56.72
76384;SHT30;65204;48.606;7.598;2023-02-26T03:49:04;2.32;56.68
76384;SHT30;65204;48.606;7.598;2023-02-26T03:49:44;2.35;56.59
76384;SHT30;65204;48.606;7.598;2023-02-26T03:50:24;2.32;56.59
76384;SHT30;65204;48.606;7.598;2023-02-26T03:51:00;2.33;56.58
76384;SHT30;65204;48.606;7.598;2023-02-26T03:51:34;2.33;56.56
76384;SHT30;65204;48.606;7.598;2023-02-26T03:52:06;2.30;56.59
76384;SHT30;65204;48.606;7.598;2023-02-26T03:52:40;2.30;56.46
76384;SHT30;65204;48.606;7.598;2023-02-26T03:53:16;2.32;56.50
76384;SHT30;65204;48.606;7.598;2023-02-26T03:53:54;2.29;56.55
76384;SHT30;65204;48.606;7.598;2023-02-26T03:54:30;2.30;56.66
76384;SHT30;65204;48.606;7.598;2023-02-26T03:55:04;2.32;56.63
76384;SHT30;65204;48.606;7.598;2023-02-26T03:55:45;2.29;56.62
76384;SHT30;65204;48.606;7.598;2023-02-26T03:56:40;2.33;56.59
76384;SHT30;65204;48.606;7.598;2023-02-26T03:57:12;2.35;56.17
76384;SHT30;65204;48.606;7.598;2023-02-26T03:57:43;2.33;56.14
76384;SHT30;65204;48.606;7.598;2023-02-26T03:58:13;2.35;56.18
76384;SHT30;65204;48.606;7.598;2023-02-26T03:58:44;2.37;56.16
76384;SHT30;65204;48.606;7.598;2023-02-26T03:59:16;2.36;56.05
76384;SHT30;65204;48.606;7.598;2023-02-26T03:59:46;2.37;55.61
76384;SHT30;65204;48.606;7.598;2023-02-26T04:00:18;2.37;55.55
76384;SHT30;65204;48.606;7.598;2023-02-26T04:00:54;2.39;55.56
76384;SHT30;65204;48.606;7.598;2023-02-26T04:01:38;2.39;55.36
76384;SHT30;65204;48.606;7.598;2023-02-26T04:02:26;2.40;55.29
76384;SHT30;65204;48.606;7.598;2023-02-26T04:03:19;2.37;55.38
76384;SHT30;65204;48.606;7.598;2023-02-26T04:03:59;2.42;55.25
76384;SHT30;65204;48.606;7.598;2023-02-26T04:04:37;2.42;55.29
76384;SHT30;65204;48.606;7.598;2023-02-26T04:05:16;2.42;55.41
76384;SHT30;65204;48.606;7.598;2023-02-26T04:05:49;2.40;55.54
76384;SHT30;65204;48.606;7.598;2023-02-26T04:06:21;2.36;55.74
76384;SHT30;65204;48.606;7.598;2023-02-26T04:06:52;2.33;55.87
76384;SHT30;65204;48.606;7.598;2023-02-26T04:07:23;2.33;55.98
76384;SHT30;65204;48.606;7.598;2023-02-26T04:07:56;2.32;56.05
76384;SHT30;65204;48.606;7.598;2023-02-26T04:08:27;2.33;56.05
76384;SHT30;65204;48.606;7.598;2023-02-26T04:08:59;2.33;56.15
76384;SHT30;65204;48.606;7.598;2023-02-26T04:09:30;2.30;56.34
76384;SHT30;65204;48.606;7.598;2023-02-26T04:10:00;2.29;56.32
76384;SHT30;65204;48.606;7.598;2023-02-26T04:10:41;2.29;56.21
76384;SHT30;65204;48.606;7.598;2023-02-26T04:11:18;2.30;56.35
76384;SHT30;65204;48.606;7.598;2023-02-26T04:11:52;2.28;56.44
76384;SHT30;65204;48.606;7.598;2023-02-26T04:12:24;2.30;56.61
76384;SHT30;65204;48.606;7.598;2023-02-26T04:12:58;2.30;56.81
76384;SHT30;65204;48.606;7.598;2023-02-26T04:13:29;2.28;56.68
76384;SHT30;65204;48.606;7.598;2023-02-26T04:13:59;2.26;56.68
76384;SHT30;65204;48.606;7.598;2023-02-26T04:14:29;2.30;56.70
76384;SHT30;65204;48.606;7.598;2023-02-26T04:15:00;2.28;56.82
76384;SHT30;65204;48.606;7.598;2023-02-26T04:15:31;2.29;56.78
76384;SHT30;65204;48.606;7.598;2023-02-26T04:16:01;2.28;56.77
76384;SHT30;65204;48.606;7.598;2023-02-26T04:16:32;2.26;56.85
76384;SHT30;65204;48.606;7.598;2023-02-26T04:17:03;2.28;56.79
76384;SHT30;65204;48.606;7.598;2023-02-26T04:17:33;2.26;56.88
76384;SHT30;65204;48.606;7.598;2023-02-26T04:18:04;2.25;57.03
76384;SHT30;65204;48.606;7.598;2023-02-26T04:18:34;2.25;57.08
76384;SHT30;65204;48.606;7.598;2023-02-26T04:19:04;2.26;57.02
76384;SHT30;65204;48.606;7.598;2023-02-26T04:19:35;2.26;57.09
76384;SHT30;65204;48.606;7.598;2023-02-26T04:20:05;2.26;57.03
76384;SHT30;65204;48.606;7.598;2023-02-26T04:20:39;2.25;57.03
76384;SHT30;65204;48.606;7.598;2023-02-26T04:21:12;2.25;57.13
76384;SHT30;65204;48.606;7.598;2023-02-26T04:21:43;2.23;56.95
76384;SHT30;65204;48.606;7.598;2023-02-26T04:22:13;2.23;56.86
76384;SHT30;65204;48.606;7.598;2023-02-26T04:22:44;2.23;56.99
76384;SHT30;65204;48.606;7.598;2023-02-26T04:23:14;2.22;57.15
76384;SHT30;65204;48.606;7.598;2023-02-26T04:23:44;2.21;57.22
76384;SHT30;65204;48.606;7.598;2023-02-26T04:24:15;2.25;57.18
76384;SHT30;65204;48.606;7.598;2023-02-26T04:24:45;2.22;57.12
76384;SHT30;65204;48.606;7.598;2023-02-26T04:25:16;2.22;57.15
76384;SHT30;65204;48.606;7.598;2023-02-26T04:25:46;2.25;57.03
76384;SHT30;65204;48.606;7.598;2023-02-26T04:26:16;2.19;56.98
76384;SHT30;65204;48.606;7.598;2023-02-26T04:26:47;2.19;57.02
76384;SHT30;65204;48.606;7.598;2023-02-26T04:27:17;2.19;57.02